createdAt,value
2023-04-15T00:00:24.662Z,3.3
2023-04-15T00:01:27.009Z,2.9
2023-04-15T00:02:29.289Z,3.3
2023-04-15T00:03:32.587Z,4.4
2023-04-15T00:04:35.897Z,3.1
2023-04-15T00:05:39.181Z,3.9
2023-04-15T00:06:42.459Z,3.2
2023-04-15T00:07:45.747Z,3.5
2023-04-15T00:08:49.036Z,3.7
2023-04-15T00:09:52.321Z,4
2023-04-15T00:10:55.638Z,3.5
2023-04-15T00:11:58.930Z,3.6
2023-04-15T00:13:02.233Z,3.9
2023-04-15T00:14:05.563Z,3.2
2023-04-15T00:15:08.825Z,3.6
2023-04-15T00:16:11.099Z,4
2023-04-15T00:17:14.408Z,4.4
2023-04-15T00:18:17.732Z,3.5
2023-04-15T00:19:21.007Z,3.6
2023-04-15T00:20:24.269Z,3.9
2023-04-15T00:21:27.589Z,3.5
2023-04-15T00:22:30.863Z,3.9
2023-04-15T00:23:33.234Z,3.3
2023-04-15T00:24:35.475Z,3.3
2023-04-15T00:28:47.759Z,6
2023-04-15T00:29:50.031Z,5.9
2023-04-15T00:30:52.297Z,3.4
2023-04-15T00:31:55.592Z,4.69
2023-04-15T00:32:58.885Z,5
2023-04-15T00:34:02.224Z,3.6
2023-04-15T00:35:05.477Z,5.2
2023-04-15T00:36:08.752Z,3.5
2023-04-15T00:37:12.028Z,3.5
2023-04-15T00:38:15.322Z,4.69
2023-04-15T00:39:18.625Z,3.4
2023-04-15T00:40:21.935Z,4
2023-04-15T00:41:25.221Z,4.3
2023-04-15T00:42:28.518Z,3.6
2023-04-15T00:43:32.092Z,3.7
2023-04-15T00:44:34.402Z,4.4
2023-04-15T00:45:37.759Z,4.4
2023-04-15T00:46:41.015Z,3.8
2023-04-15T00:47:44.284Z,3.5
2023-04-15T00:48:47.583Z,3.2
2023-04-15T00:49:50.871Z,3.3
2023-04-15T00:50:54.176Z,3.7
2023-04-15T00:51:56.473Z,3.9
2023-04-15T00:52:58.775Z,4.1
2023-04-15T00:54:01.112Z,3.6
2023-04-15T00:55:03.469Z,3.5
2023-04-15T00:56:06.690Z,3.5
2023-04-15T00:57:09.985Z,4.19
2023-04-15T00:58:13.295Z,4
2023-04-15T00:59:16.599Z,3.8
2023-04-15T01:00:19.860Z,3.6
2023-04-15T01:01:23.141Z,3.4
2023-04-15T01:03:29.744Z,3.9
2023-04-15T01:04:33.038Z,4.69
2023-04-15T01:05:36.325Z,3.2
2023-04-15T01:06:39.614Z,3.1
2023-04-15T01:07:42.901Z,3.9
2023-04-15T01:08:45.290Z,3.4
2023-04-15T01:09:48.507Z,3.5
2023-04-15T01:10:51.801Z,3.8
2023-04-15T01:11:55.081Z,3.2
2023-04-15T01:12:58.373Z,3.7
2023-04-15T01:14:01.670Z,3.8
2023-04-15T01:15:04.963Z,3.2
2023-04-15T01:16:08.303Z,3.6
2023-04-15T01:17:10.653Z,3.8
2023-04-15T01:18:12.914Z,4
2023-04-15T01:19:15.198Z,3.5
2023-04-15T01:20:17.508Z,3.8
2023-04-15T01:21:20.793Z,3.4
2023-04-15T01:22:24.137Z,3.5
2023-04-15T01:23:27.382Z,3.2
2023-04-15T01:24:30.660Z,3.3
2023-04-15T01:25:33.954Z,3.3
2023-04-15T01:26:37.280Z,4
2023-04-15T01:27:40.545Z,4.1
2023-04-15T01:28:43.831Z,3.4
2023-04-15T01:29:47.115Z,4
2023-04-15T01:30:50.416Z,3.3
2023-04-15T01:31:53.716Z,3.8
2023-04-15T01:32:57.004Z,3.3
2023-04-15T01:33:59.313Z,3.7
2023-04-15T01:35:02.629Z,3.7
2023-04-15T01:36:05.925Z,3.5
2023-04-15T01:37:09.192Z,3.3
2023-04-15T01:38:12.538Z,3.4
2023-04-15T01:39:15.768Z,3.4
2023-04-15T01:40:19.060Z,3.4
2023-04-15T01:41:21.394Z,3
2023-04-15T01:42:23.673Z,3.2
2023-04-15T01:43:26.974Z,3.9
2023-04-15T01:44:29.571Z,3.6
2023-04-15T01:45:31.764Z,3.4
2023-04-15T01:46:35.053Z,3.3
2023-04-15T01:47:38.354Z,3.4
2023-04-15T01:48:41.653Z,3.2
2023-04-15T01:49:44.933Z,4.1
2023-04-15T01:50:48.233Z,3.1
2023-04-15T01:51:51.528Z,2.9
2023-04-15T01:52:54.812Z,3.5
2023-04-15T01:53:58.110Z,3.3
2023-04-15T01:55:01.388Z,3
2023-04-15T01:56:04.678Z,3.7
2023-04-15T01:57:07.989Z,3
2023-04-15T01:58:11.276Z,3
2023-04-15T01:59:13.570Z,3.6
2023-04-15T02:00:16.925Z,2.9
2023-04-15T02:01:20.169Z,3.5
2023-04-15T02:02:23.471Z,3.3
2023-04-15T02:03:26.792Z,3.6
2023-04-15T02:04:30.065Z,3.1
2023-04-15T02:05:33.335Z,3.9
2023-04-15T02:06:35.678Z,3.8
2023-04-15T02:07:37.985Z,3
2023-04-15T02:08:40.305Z,3.4
2023-04-15T02:09:42.578Z,2.6
2023-04-15T02:10:45.857Z,3.1
2023-04-15T02:11:49.156Z,2.7
2023-04-15T02:12:51.470Z,2.7
2023-04-15T02:13:54.768Z,3.2
2023-04-15T02:14:58.065Z,2.8
2023-04-15T02:16:01.347Z,2.7
2023-04-15T02:17:04.636Z,2.8
2023-04-15T02:18:07.942Z,3.4
2023-04-15T02:19:11.251Z,2.9
2023-04-15T02:20:14.509Z,3.1
2023-04-15T02:21:17.820Z,2.6
2023-04-15T02:22:21.105Z,2.8
2023-04-15T02:23:24.444Z,3.4
2023-04-15T02:24:27.696Z,2.9
2023-04-15T02:25:30.992Z,2.8
2023-04-15T02:26:33.296Z,3
2023-04-15T02:27:36.585Z,3
2023-04-15T02:28:39.902Z,2.5
2023-04-15T02:29:43.208Z,2.4
2023-04-15T02:30:46.454Z,3
2023-04-15T02:31:48.764Z,2.5
2023-04-15T02:32:51.083Z,3
2023-04-15T02:34:56.676Z,2.5
2023-04-15T02:35:59.038Z,2.5
2023-04-15T02:37:01.317Z,2.8
2023-04-15T02:38:04.596Z,2.4
2023-04-15T02:39:07.891Z,2.8
2023-04-15T02:40:11.166Z,2.8
2023-04-15T02:41:14.478Z,2.5
2023-04-15T02:42:17.770Z,2.8
2023-04-15T02:43:21.061Z,2.6
2023-04-15T02:44:24.341Z,2.8
2023-04-15T02:45:27.639Z,2.9
2023-04-15T02:46:30.945Z,2.8
2023-04-15T02:47:34.291Z,2.8
2023-04-15T02:48:37.515Z,2.4
2023-04-15T02:49:40.802Z,3
2023-04-15T02:50:43.113Z,2.9
2023-04-15T02:51:46.398Z,2.9
2023-04-15T02:52:49.727Z,2.6
2023-04-15T02:53:52.973Z,3.1
2023-04-15T02:54:56.264Z,3
2023-04-15T02:55:59.570Z,2.8
2023-04-15T02:57:02.864Z,3.5
2023-04-15T02:58:05.181Z,3
2023-04-15T02:59:07.499Z,2.6
2023-04-15T03:00:10.771Z,3.4
2023-04-15T03:01:14.062Z,2.7
2023-04-15T03:02:17.357Z,2.8
2023-04-15T03:03:20.646Z,2.7
2023-04-15T03:04:23.959Z,3.1
2023-04-15T03:05:27.243Z,4.5
2023-04-15T03:06:30.529Z,2.8
2023-04-15T03:07:33.807Z,2.6
2023-04-15T03:08:37.120Z,2.7
2023-04-15T03:09:40.413Z,2.6
2023-04-15T03:10:43.695Z,3.5
2023-04-15T03:11:46.983Z,2.7
2023-04-15T03:12:49.380Z,3.5
2023-04-15T03:13:52.579Z,3.2
2023-04-15T03:14:55.870Z,3.5
2023-04-15T03:15:59.190Z,3.2
2023-04-15T03:17:02.462Z,2.9
2023-04-15T03:18:05.756Z,3.1
2023-04-15T03:19:09.034Z,3.4
2023-04-15T03:20:11.383Z,3
2023-04-15T03:21:13.667Z,3.1
2023-04-15T03:22:15.968Z,3
2023-04-15T03:23:18.295Z,3.1
2023-04-15T03:24:21.577Z,3.3
2023-04-15T03:25:24.877Z,3.1
2023-04-15T03:26:28.163Z,2.9
2023-04-15T03:27:31.458Z,3
2023-04-15T03:28:34.749Z,3.2
2023-04-15T03:29:38.032Z,3.6
2023-04-15T03:30:41.373Z,3.2
2023-04-15T03:31:44.641Z,2.8
2023-04-15T03:32:47.954Z,3
2023-04-15T03:33:51.191Z,4
2023-04-15T03:34:54.483Z,2.9
2023-04-15T03:35:57.812Z,3.1
2023-04-15T03:37:00.085Z,3
2023-04-15T03:38:03.383Z,2.7
2023-04-15T03:39:06.684Z,2.5
2023-04-15T03:40:10.018Z,2.9
2023-04-15T03:41:13.271Z,2.9
2023-04-15T03:42:16.583Z,3.2
2023-04-15T03:43:19.845Z,2.8
2023-04-15T03:44:22.177Z,3
2023-04-15T03:45:24.465Z,2.6
2023-04-15T03:46:27.763Z,2.5
2023-04-15T03:47:30.266Z,2.9
2023-04-15T03:48:32.528Z,2.6
2023-04-15T03:49:35.837Z,2.6
2023-04-15T03:50:39.142Z,2.5
2023-04-15T03:51:42.406Z,2.5
2023-04-15T03:52:45.760Z,5.4
2023-04-15T03:53:49.001Z,2.7
2023-04-15T03:54:52.290Z,2.5
2023-04-15T03:55:55.599Z,2.8
2023-04-15T03:56:58.878Z,2.7
2023-04-15T03:58:02.183Z,2.5
2023-04-15T03:59:05.491Z,2.6
2023-04-15T04:00:08.758Z,2.5
2023-04-15T04:01:12.045Z,2.9
2023-04-15T04:02:14.345Z,2.8
2023-04-15T04:03:17.652Z,2.5
2023-04-15T04:04:20.937Z,2.5
2023-04-15T04:05:24.234Z,2.4
2023-04-15T04:06:27.521Z,2.6
2023-04-15T04:07:30.864Z,2.5
2023-04-15T04:08:34.104Z,1.9
2023-04-15T04:09:36.433Z,2.3
2023-04-15T04:10:38.726Z,2.3
2023-04-15T04:11:41.041Z,2.2
2023-04-15T04:12:43.347Z,2.5
2023-04-15T04:13:46.647Z,2.2
2023-04-15T04:14:49.932Z,2.09
2023-04-15T04:15:53.234Z,2.6
2023-04-15T04:16:56.502Z,2.3
2023-04-15T04:17:59.830Z,2.3
2023-04-15T04:19:03.087Z,2.4
2023-04-15T04:20:06.392Z,2.2
2023-04-15T04:21:09.681Z,2.09
2023-04-15T04:23:17.939Z,2.09
2023-04-15T04:24:19.570Z,2.2
2023-04-15T04:25:22.849Z,2.2
2023-04-15T04:26:25.140Z,2.09
2023-04-15T04:27:28.458Z,2.09
2023-04-15T04:28:31.728Z,2.09
2023-04-15T04:29:35.030Z,2.2
2023-04-15T04:30:38.326Z,2.5
2023-04-15T04:31:41.618Z,2.2
2023-04-15T04:32:44.896Z,2.2
2023-04-15T04:33:48.185Z,2
2023-04-15T04:34:50.520Z,2.3
2023-04-15T04:35:52.809Z,2.2
2023-04-15T04:36:55.149Z,2.2
2023-04-15T04:37:57.438Z,2
2023-04-15T04:39:00.724Z,1.8
2023-04-15T04:40:04.013Z,2.3
2023-04-15T04:41:07.323Z,1.8
2023-04-15T04:42:10.592Z,2.4
2023-04-15T04:43:13.890Z,2.09
2023-04-15T04:44:17.179Z,2.5
2023-04-15T04:45:20.488Z,1.8
2023-04-15T04:46:23.784Z,2.09
2023-04-15T04:47:27.073Z,1.7
2023-04-15T04:48:30.564Z,1.8
2023-04-15T04:49:33.877Z,2.6
2023-04-15T04:50:37.206Z,1.9
2023-04-15T04:51:39.647Z,2.2
2023-04-15T04:52:42.749Z,2.09
2023-04-15T04:53:46.054Z,2.3
2023-04-15T04:54:49.334Z,2.09
2023-04-15T04:55:52.637Z,2
2023-04-15T04:56:55.942Z,1.9
2023-04-15T04:57:59.250Z,1.9
2023-04-15T04:59:01.614Z,1.8
2023-04-15T05:00:03.863Z,1.8
2023-04-15T05:01:06.166Z,1.9
2023-04-15T05:02:08.477Z,2.09
2023-04-15T05:03:11.844Z,2.09
2023-04-15T05:04:15.059Z,2.09
2023-04-15T05:05:18.354Z,1.9
2023-04-15T05:06:21.639Z,2.4
2023-04-15T05:07:24.924Z,2.2
2023-04-15T05:08:28.211Z,2
2023-04-15T05:09:31.527Z,2.3
2023-04-15T05:10:34.827Z,2.09
2023-04-15T05:11:38.085Z,2
2023-04-15T05:12:41.389Z,2.09
2023-04-15T05:13:44.743Z,2.09
2023-04-15T05:14:47.974Z,1.7
2023-04-15T05:15:50.276Z,2.09
2023-04-15T05:16:53.578Z,2.09
2023-04-15T05:17:56.911Z,2.3
2023-04-15T05:19:00.166Z,2.2
2023-04-15T05:20:03.492Z,2.4
2023-04-15T05:21:06.737Z,2.09
2023-04-15T05:22:10.071Z,2.2
2023-04-15T05:23:12.341Z,1.9
2023-04-15T05:24:14.699Z,2.09
2023-04-15T05:25:16.978Z,2.2
2023-04-15T05:26:19.277Z,2.09
2023-04-15T05:27:22.642Z,2.09
2023-04-15T05:28:25.856Z,1.8
2023-04-15T05:29:29.163Z,1.9
2023-04-15T05:30:32.435Z,1.8
2023-04-15T05:31:35.824Z,1.8
2023-04-15T05:32:39.066Z,1.7
2023-04-15T05:33:42.314Z,1.9
2023-04-15T05:34:45.644Z,1.8
2023-04-15T05:35:48.901Z,2.09
2023-04-15T05:36:52.197Z,1.9
2023-04-15T05:37:55.545Z,2
2023-04-15T05:38:58.789Z,2
2023-04-15T05:40:01.073Z,2.09
2023-04-15T05:41:04.411Z,1.6
2023-04-15T05:42:07.660Z,1.7
2023-04-15T05:43:10.972Z,1.7
2023-04-15T05:44:13.275Z,1.8
2023-04-15T05:45:16.606Z,1.8
2023-04-15T05:46:19.867Z,2
2023-04-15T05:47:22.193Z,2
2023-04-15T05:48:24.491Z,1.8
2023-04-15T05:49:28.017Z,1.9
2023-04-15T05:50:30.327Z,1.9
2023-04-15T05:51:34.007Z,1.7
2023-04-15T05:52:36.307Z,1.8
2023-04-15T05:53:39.684Z,1.6
2023-04-15T05:54:42.895Z,1.9
2023-04-15T05:55:46.179Z,1.8
2023-04-15T05:56:49.522Z,1.8
2023-04-15T05:57:52.804Z,1.7
2023-04-15T05:58:56.065Z,1.6
2023-04-15T05:59:59.351Z,1.6
2023-04-15T06:01:02.679Z,2.2
2023-04-15T06:02:05.961Z,1.8
2023-04-15T06:03:09.237Z,1.7
2023-04-15T06:04:12.585Z,1.7
2023-04-15T06:05:15.833Z,1.7
2023-04-15T06:06:18.143Z,1.9
2023-04-15T06:07:21.483Z,2
2023-04-15T06:08:24.714Z,1.8
2023-04-15T06:09:28.164Z,2.4
2023-04-15T06:10:31.431Z,1.8
2023-04-15T06:11:34.728Z,1.8
2023-04-15T06:12:37.042Z,1.9
2023-04-15T06:13:39.441Z,2.3
2023-04-15T06:14:42.640Z,1.7
2023-04-15T06:15:46.091Z,1.7
2023-04-15T06:16:49.212Z,1.9
2023-04-15T06:17:52.621Z,1.7
2023-04-15T06:18:55.814Z,1.9
2023-04-15T06:19:59.092Z,1.7
2023-04-15T06:21:02.414Z,1.9
2023-04-15T06:22:05.694Z,1.7
2023-04-15T06:23:08.964Z,1.6
2023-04-15T06:24:12.438Z,1.8
2023-04-15T06:25:15.601Z,1.9
2023-04-15T06:26:18.912Z,1.6
2023-04-15T06:27:21.150Z,1.7
2023-04-15T06:28:24.479Z,1.7
2023-04-15T06:29:27.740Z,1.7
2023-04-15T06:30:31.211Z,1.7
2023-04-15T06:31:34.513Z,1.6
2023-04-15T06:32:37.789Z,1.6
2023-04-15T06:33:41.080Z,1.7
2023-04-15T06:34:43.477Z,2
2023-04-15T06:35:45.719Z,1.7
2023-04-15T06:36:48.059Z,1.7
2023-04-15T06:37:50.405Z,2.8
2023-04-15T06:38:53.605Z,1.8
2023-04-15T06:39:56.933Z,1.8
2023-04-15T06:41:00.194Z,1.8
2023-04-15T06:42:03.548Z,1.8
2023-04-15T06:43:06.768Z,1.9
2023-04-15T06:44:10.101Z,1.8
2023-04-15T06:45:13.465Z,1.9
2023-04-15T06:46:16.656Z,1.6
2023-04-15T06:47:19.962Z,2
2023-04-15T06:48:23.287Z,1.8
2023-04-15T06:49:26.550Z,2.6
2023-04-15T06:50:29.874Z,2.09
2023-04-15T06:51:32.127Z,1.8
2023-04-15T06:52:35.464Z,1.8
2023-04-15T06:53:38.773Z,2
2023-04-15T06:54:42.007Z,1.9
2023-04-15T06:55:45.361Z,2
2023-04-15T06:56:48.600Z,2
2023-04-15T06:57:51.877Z,1.9
2023-04-15T06:58:54.248Z,1.8
2023-04-15T06:59:56.515Z,2
2023-04-15T07:00:59.798Z,2
2023-04-15T07:02:02.146Z,1.9
2023-04-15T07:03:04.410Z,1.7
2023-04-15T07:04:07.755Z,1.9
2023-04-15T07:05:11.073Z,2
2023-04-15T07:06:14.294Z,2.7
2023-04-15T07:07:17.719Z,1.8
2023-04-15T07:08:21.034Z,1.8
2023-04-15T07:09:24.233Z,1.8
2023-04-15T07:10:27.453Z,1.6
2023-04-15T07:11:30.774Z,2
2023-04-15T07:12:34.077Z,1.8
2023-04-15T07:13:37.326Z,1.6
2023-04-15T07:14:40.752Z,1.8
2023-04-15T07:15:44.075Z,1.6
2023-04-15T07:16:46.408Z,1.6
2023-04-15T07:17:49.519Z,1.8
2023-04-15T07:18:53.012Z,1.7
2023-04-15T07:19:56.256Z,1.5
2023-04-15T07:20:59.505Z,1.4
2023-04-15T07:22:02.712Z,1.4
2023-04-15T07:23:06.097Z,1.5
2023-04-15T07:24:08.457Z,1.6
2023-04-15T07:25:10.593Z,1.6
2023-04-15T07:26:14.017Z,1.5
2023-04-15T07:27:17.332Z,1.6
2023-04-15T07:28:20.686Z,1.5
2023-04-15T07:29:23.908Z,1.6
2023-04-15T07:30:27.140Z,1.7
2023-04-15T07:31:30.437Z,1.5
2023-04-15T07:32:33.826Z,1.8
2023-04-15T07:33:36.953Z,1.6
2023-04-15T07:34:40.411Z,1.8
2023-04-15T07:35:43.720Z,1.8
2023-04-15T07:36:46.808Z,3.1
2023-04-15T07:37:50.217Z,1.8
2023-04-15T07:38:52.476Z,1.7
2023-04-15T07:39:55.879Z,1.7
2023-04-15T07:40:59.058Z,1.7
2023-04-15T07:42:02.285Z,1.6
2023-04-15T07:43:05.770Z,1.6
2023-04-15T07:44:09.013Z,1.5
2023-04-15T07:45:12.312Z,1.6
2023-04-15T07:46:14.634Z,1.6
2023-04-15T07:47:16.894Z,1.5
2023-04-15T07:48:19.131Z,1.6
2023-04-15T07:49:21.598Z,1.7
2023-04-15T07:50:24.750Z,1.4
2023-04-15T07:51:28.017Z,2
2023-04-15T07:52:31.279Z,1.7
2023-04-15T07:53:34.934Z,1.6
2023-04-15T07:54:38.337Z,1.6
2023-04-15T07:55:41.583Z,1.5
2023-04-15T07:56:44.910Z,1.5
2023-04-15T07:57:48.132Z,1.6
2023-04-15T07:58:51.513Z,1.5
2023-04-15T07:59:54.670Z,1.6
2023-04-15T08:00:57.962Z,1.6
2023-04-15T08:02:01.354Z,1.6
2023-04-15T08:03:03.673Z,1.6
2023-04-15T08:04:06.914Z,1.3
2023-04-15T08:05:10.290Z,1.5
2023-04-15T08:06:13.541Z,1.4
2023-04-15T08:07:16.831Z,1.7
2023-04-15T08:08:20.022Z,1.5
2023-04-15T08:09:23.480Z,1.4
2023-04-15T08:10:25.629Z,1.4
2023-04-15T08:11:27.959Z,1.4
2023-04-15T08:12:30.245Z,1.5
2023-04-15T08:13:32.653Z,1.4
2023-04-15T08:14:35.850Z,1.5
2023-04-15T08:15:39.256Z,1.5
2023-04-15T08:16:42.502Z,1.3
2023-04-15T08:17:45.737Z,1.4
2023-04-15T08:18:49.186Z,1.3
2023-04-15T08:19:52.473Z,1.4
2023-04-15T08:20:55.706Z,1.3
2023-04-15T08:21:59.020Z,1.2
2023-04-15T08:23:02.297Z,1.2
2023-04-15T08:24:05.693Z,1.3
2023-04-15T08:25:08.920Z,1.5
2023-04-15T08:26:12.051Z,2.4
2023-04-15T08:27:14.463Z,1.3
2023-04-15T08:28:17.694Z,1.9
2023-04-15T08:29:21.108Z,1.3
2023-04-15T08:30:24.293Z,1.5
2023-04-15T08:31:27.688Z,1.4
2023-04-15T08:32:30.971Z,1.4
2023-04-15T08:33:34.179Z,1.6
2023-04-15T08:34:36.563Z,1.1
2023-04-15T08:35:38.861Z,1.4
2023-04-15T08:36:42.015Z,8.5
2023-04-15T08:37:45.318Z,5.9
2023-04-15T08:38:48.600Z,1.7
2023-04-15T08:39:51.953Z,14.6
2023-04-15T08:40:55.206Z,11.6
2023-04-15T08:41:58.625Z,5.3
2023-04-15T08:43:01.787Z,5.7
2023-04-15T08:44:05.194Z,8.8
2023-04-15T08:45:08.346Z,7.9
2023-04-15T08:46:11.675Z,9.1
2023-04-15T08:47:14.954Z,8
2023-04-15T08:48:18.246Z,5.6
2023-04-15T08:49:20.711Z,3.1
2023-04-15T08:50:23.949Z,3.1
2023-04-15T08:51:27.359Z,3
2023-04-15T08:52:30.531Z,3.6
2023-04-15T08:53:33.709Z,2.4
2023-04-15T08:54:37.012Z,3.1
2023-04-15T08:55:40.379Z,2.09
2023-04-15T08:56:42.614Z,2.5
2023-04-15T08:57:44.928Z,12.6
2023-04-15T08:58:47.246Z,9.3
2023-04-15T08:59:49.688Z,6.8
2023-04-15T09:00:52.959Z,16.5
2023-04-15T09:01:56.293Z,6.9
2023-04-15T09:02:59.554Z,11.1
2023-04-15T09:04:02.890Z,12.6
2023-04-15T09:05:06.124Z,9.3
2023-04-15T09:06:09.381Z,21.2
2023-04-15T09:07:12.636Z,17.7
2023-04-15T09:08:15.893Z,19.7
2023-04-15T09:09:19.301Z,12.6
2023-04-15T09:10:22.548Z,13.8
2023-04-15T09:11:25.872Z,8.1
2023-04-15T09:12:29.312Z,6.3
2023-04-15T09:13:31.658Z,11.6
2023-04-15T09:14:35.319Z,4.3
2023-04-15T09:15:37.614Z,4.8
2023-04-15T09:16:40.906Z,7.7
2023-04-15T09:17:44.314Z,7.9
2023-04-15T09:18:47.634Z,7
2023-04-15T09:19:50.783Z,3.9
2023-04-15T09:20:53.250Z,6.4
2023-04-15T09:21:55.366Z,7.2
2023-04-15T09:22:58.777Z,4.5
2023-04-15T09:24:01.202Z,5.3
2023-04-15T09:25:03.273Z,3
2023-04-15T09:26:06.632Z,5.3
2023-04-15T09:27:09.895Z,4.4
2023-04-15T09:28:13.184Z,4.6
2023-04-15T09:29:16.478Z,3.9
2023-04-15T09:30:19.739Z,2.6
2023-04-15T09:31:23.040Z,4.4
2023-04-15T09:32:26.425Z,2.2
2023-04-15T09:33:29.721Z,5.8
2023-04-15T09:34:32.914Z,3.4
2023-04-15T09:35:36.327Z,6.4
2023-04-15T09:36:39.663Z,3.7
2023-04-15T09:37:42.995Z,3
2023-04-15T09:38:45.165Z,2.7
2023-04-15T09:39:48.381Z,4.19
2023-04-15T09:40:51.670Z,3
2023-04-15T09:41:55.092Z,1.8
2023-04-15T09:42:58.450Z,1.9
2023-04-15T09:44:01.721Z,1.7
2023-04-15T09:45:04.934Z,3.1
2023-04-15T09:46:07.161Z,2.6
2023-04-15T09:47:09.573Z,1.6
2023-04-15T09:48:11.800Z,2.5
2023-04-15T09:49:14.079Z,2.5
2023-04-15T09:50:17.451Z,2.7
2023-04-15T09:51:20.687Z,2.2
2023-04-15T09:52:23.957Z,1.8
2023-04-15T09:53:27.248Z,1.7
2023-04-15T09:54:30.739Z,2.7
2023-04-15T09:55:34.008Z,1.8
2023-04-15T09:56:37.228Z,1.5
2023-04-15T09:57:40.558Z,1.8
2023-04-15T09:58:43.818Z,2
2023-04-15T09:59:47.066Z,1.9
2023-04-15T10:00:50.304Z,2.2
2023-04-15T10:01:53.616Z,1.7
2023-04-15T10:02:56.046Z,2.2
2023-04-15T10:03:59.313Z,1.9
2023-04-15T10:05:02.626Z,2.09
2023-04-15T10:06:05.788Z,2.2
2023-04-15T10:07:09.137Z,1.6
2023-04-15T10:08:12.429Z,1.5
2023-04-15T10:09:15.641Z,3.6
2023-04-15T10:10:18.128Z,1.6
2023-04-15T10:11:20.442Z,2.8
2023-04-15T10:12:23.663Z,1.6
2023-04-15T10:13:25.868Z,2.3
2023-04-15T10:14:28.264Z,1.6
2023-04-15T10:15:31.596Z,1.7
2023-04-15T10:16:34.818Z,1.5
2023-04-15T10:17:38.138Z,1.7
2023-04-15T10:18:41.466Z,1.9
2023-04-15T10:19:44.686Z,1.6
2023-04-15T10:20:47.937Z,1.6
2023-04-15T10:21:51.252Z,1.7
2023-04-15T10:22:54.596Z,1.9
2023-04-15T10:23:57.913Z,1.6
2023-04-15T10:25:01.195Z,1.6
2023-04-15T10:26:04.507Z,1.7
2023-04-15T10:27:07.695Z,2
2023-04-15T10:28:10.006Z,1.9
2023-04-15T10:29:13.296Z,1.8
2023-04-15T10:30:16.659Z,1.7
2023-04-15T10:31:19.874Z,1.7
2023-04-15T10:32:23.167Z,2.09
2023-04-15T10:33:26.603Z,2.09
2023-04-15T10:34:29.883Z,1.7
2023-04-15T10:35:32.089Z,2.6
2023-04-15T10:36:34.393Z,2.4
2023-04-15T10:37:36.724Z,1.7
2023-04-15T10:38:39.049Z,1.6
2023-04-15T10:39:42.320Z,1.6
2023-04-15T10:41:48.994Z,1.9
2023-04-15T10:42:52.228Z,2
2023-04-15T10:43:55.602Z,1.8
2023-04-15T10:44:58.932Z,2.09
2023-04-15T10:46:02.189Z,1.8
2023-04-15T10:47:05.418Z,1.8
2023-04-15T10:48:08.692Z,1.8
2023-04-15T10:49:12.051Z,1.7
2023-04-15T10:50:15.238Z,1.7
2023-04-15T10:51:18.520Z,2.2
2023-04-15T10:52:20.847Z,1.8
2023-04-15T10:53:24.125Z,1.8
2023-04-15T10:54:27.407Z,1.7
2023-04-15T10:55:30.816Z,2.2
2023-04-15T10:56:33.986Z,1.8
2023-04-15T10:57:37.379Z,1.9
2023-04-15T10:58:40.715Z,1.8
2023-04-15T10:59:43.915Z,2
2023-04-15T11:00:46.407Z,2.2
2023-04-15T11:01:48.472Z,2.2
2023-04-15T11:02:51.778Z,2.09
2023-04-15T11:03:55.192Z,1.7
2023-04-15T11:04:58.415Z,1.8
2023-04-15T11:06:01.658Z,2
2023-04-15T11:07:05.023Z,2
2023-04-15T11:08:08.235Z,2.4
2023-04-15T11:09:11.616Z,1.8
2023-04-15T11:10:14.824Z,1.6
2023-04-15T11:11:18.154Z,1.8
2023-04-15T11:12:21.393Z,2.2
2023-04-15T11:13:24.775Z,1.7
2023-04-15T11:14:27.995Z,1.9
2023-04-15T11:15:30.384Z,1.5
2023-04-15T11:16:33.705Z,1.6
2023-04-15T11:17:36.919Z,2.2
2023-04-15T11:18:40.313Z,1.7
2023-04-15T11:19:43.575Z,1.7
2023-04-15T11:20:46.750Z,2
2023-04-15T11:21:50.053Z,2.3
2023-04-15T11:22:52.391Z,1.6
2023-04-15T11:23:54.666Z,1.8
2023-04-15T11:24:57.019Z,1.8
2023-04-15T11:25:59.290Z,1.9
2023-04-15T11:27:01.595Z,1.6
2023-04-15T11:28:04.148Z,1.6
2023-04-15T11:29:07.289Z,1.6
2023-04-15T11:30:10.604Z,1.6
2023-04-15T11:31:13.950Z,1.7
2023-04-15T11:32:17.084Z,1.7
2023-04-15T11:33:20.567Z,1.6
2023-04-15T11:34:23.658Z,1.7
2023-04-15T11:35:26.965Z,1.5
2023-04-15T11:36:30.244Z,1.5
2023-04-15T11:37:33.542Z,1.6
2023-04-15T11:38:36.836Z,1.5
2023-04-15T11:39:40.129Z,1.6
2023-04-15T11:40:43.417Z,1.6
2023-04-15T11:41:45.719Z,1.5
2023-04-15T11:42:49.028Z,1.6
2023-04-15T11:43:52.313Z,1.4
2023-04-15T11:44:55.608Z,1.5
2023-04-15T11:45:58.882Z,1.7
2023-04-15T11:47:02.186Z,1.4
2023-04-15T11:48:05.482Z,1.8
2023-04-15T11:49:07.797Z,1.4
2023-04-15T11:50:10.108Z,1.6
2023-04-15T11:51:12.422Z,1.4
2023-04-15T11:52:14.719Z,1.4
2023-04-15T11:53:18.001Z,1.5
2023-04-15T11:54:21.312Z,2
2023-04-15T11:55:24.602Z,1.6
2023-04-15T11:56:27.882Z,1.4
2023-04-15T11:57:31.162Z,1.5
2023-04-15T11:58:34.471Z,1.4
2023-04-15T11:59:37.743Z,1.4
2023-04-15T12:00:41.050Z,1.5
2023-04-15T12:01:44.350Z,1.3
2023-04-15T12:02:47.645Z,1.4
2023-04-15T12:03:50.936Z,1.6
2023-04-15T12:04:54.229Z,1.4
2023-04-15T12:05:56.524Z,1.3
2023-04-15T12:06:59.809Z,1.4
2023-04-15T12:08:03.100Z,1.5
2023-04-15T12:09:06.400Z,1.3
2023-04-15T12:10:09.692Z,1.4
2023-04-15T12:11:12.972Z,1.3
2023-04-15T12:12:16.263Z,1.3
2023-04-15T12:13:18.603Z,1.3
2023-04-15T12:14:20.886Z,1.1
2023-04-15T12:15:23.185Z,1.2
2023-04-15T12:16:25.514Z,1.3
2023-04-15T12:17:28.799Z,1.2
2023-04-15T12:18:32.099Z,1.3
2023-04-15T12:19:35.396Z,1.3
2023-04-15T12:20:38.679Z,1.3
2023-04-15T12:21:41.977Z,1.4
2023-04-15T12:22:45.251Z,1.2
2023-04-15T12:23:48.559Z,1.3
2023-04-15T12:24:51.850Z,1.4
2023-04-15T12:25:55.148Z,1.5
2023-04-15T12:26:58.444Z,1.2
2023-04-15T12:28:01.723Z,1.3
2023-04-15T12:29:05.047Z,1.3
2023-04-15T12:30:07.322Z,1.3
2023-04-15T12:31:10.613Z,1.3
2023-04-15T12:32:13.921Z,1.1
2023-04-15T12:33:17.213Z,1.4
2023-04-15T12:34:20.492Z,1.5
2023-04-15T12:35:23.786Z,1
2023-04-15T12:36:27.137Z,1.3
2023-04-15T12:37:29.380Z,1.2
2023-04-15T12:38:31.705Z,1.3
2023-04-15T12:39:34.006Z,1.3
2023-04-15T12:40:36.338Z,1.2
2023-04-15T12:41:39.669Z,1
2023-04-15T12:42:42.913Z,1.2
2023-04-15T12:43:46.196Z,1.1
2023-04-15T12:44:49.500Z,1.3
2023-04-15T12:45:52.775Z,2.6
2023-04-15T12:46:55.089Z,1.2
2023-04-15T12:47:58.376Z,1.3
2023-04-15T12:49:01.738Z,1.3
2023-04-15T12:50:04.992Z,1.3
2023-04-15T12:51:08.330Z,1.3
2023-04-15T12:52:11.555Z,1.2
2023-04-15T12:53:14.824Z,1.1
2023-04-15T12:54:18.135Z,1.2
2023-04-15T12:55:21.444Z,1.3
2023-04-15T12:56:24.712Z,1.3
2023-04-15T12:57:28.015Z,1.2
2023-04-15T12:58:31.307Z,1.4
2023-04-15T12:59:34.590Z,1.3
2023-04-15T13:00:36.896Z,1
2023-04-15T13:01:39.227Z,1.4
2023-04-15T13:02:41.530Z,1.3
2023-04-15T13:03:43.848Z,1.4
2023-04-15T13:04:46.143Z,1.3
2023-04-15T13:05:49.440Z,1.4
2023-04-15T13:06:52.708Z,1.4
2023-04-15T13:07:56.024Z,1.3
2023-04-15T13:08:59.318Z,1.4
2023-04-15T13:10:02.604Z,1.3
2023-04-15T13:11:05.916Z,1.3
2023-04-15T13:12:09.203Z,1.4
2023-04-15T13:13:12.478Z,1.3
2023-04-15T13:14:15.776Z,1.5
2023-04-15T13:15:19.065Z,1.7
2023-04-15T13:16:22.386Z,1.1
2023-04-15T13:17:25.646Z,1.3
2023-04-15T13:18:27.951Z,1.5
2023-04-15T13:19:31.233Z,1.4
2023-04-15T13:20:34.557Z,1.6
2023-04-15T13:21:37.843Z,1.2
2023-04-15T13:22:41.129Z,1.4
2023-04-15T13:23:44.425Z,1.1
2023-04-15T13:24:47.702Z,1.2
2023-04-15T13:25:50.028Z,1.4
2023-04-15T13:26:52.329Z,1.4
2023-04-15T13:27:54.633Z,1.4
2023-04-15T13:28:56.959Z,1.5
2023-04-15T13:30:00.239Z,1.3
2023-04-15T13:31:03.607Z,1.3
2023-04-15T13:32:06.830Z,1.3
2023-04-15T13:33:10.121Z,1.3
2023-04-15T13:34:13.418Z,1.1
2023-04-15T13:35:16.707Z,1.2
2023-04-15T13:36:20.003Z,1.2
2023-04-15T13:37:23.295Z,1.3
2023-04-15T13:38:26.579Z,1.3
2023-04-15T13:39:29.862Z,1.2
2023-04-15T13:40:33.154Z,1.1
2023-04-15T13:41:36.450Z,1.1
2023-04-15T13:42:38.764Z,1.2
2023-04-15T13:43:42.063Z,1.3
2023-04-15T13:44:45.343Z,1.1
2023-04-15T13:45:48.638Z,1.3
2023-04-15T13:46:51.959Z,1.1
2023-04-15T13:47:55.222Z,1.3
2023-04-15T13:48:58.519Z,1.4
2023-04-15T13:50:00.828Z,1.3
2023-04-15T13:51:03.143Z,1.3
2023-04-15T13:52:06.425Z,1.3
2023-04-15T13:53:09.719Z,1.1
2023-04-15T13:54:12.028Z,1.1
2023-04-15T13:55:14.364Z,1.3
2023-04-15T13:56:17.627Z,1.3
2023-04-15T13:57:20.922Z,1.3
2023-04-15T13:58:24.215Z,1.2
2023-04-15T13:59:27.517Z,1.1
2023-04-15T14:00:31.114Z,1.3
2023-04-15T14:01:34.416Z,1.3
2023-04-15T14:02:37.688Z,1.3
2023-04-15T14:03:40.993Z,1.4
2023-04-15T14:04:44.277Z,1.4
2023-04-15T14:05:47.566Z,1.4
2023-04-15T14:06:50.860Z,1.4
2023-04-15T14:07:54.149Z,1.6
2023-04-15T14:08:56.461Z,1.5
2023-04-15T14:09:59.750Z,1.4
2023-04-15T14:11:03.036Z,1.4
2023-04-15T14:12:06.333Z,1.3
2023-04-15T14:13:09.620Z,1.5
2023-04-15T14:14:12.926Z,1.4
2023-04-15T14:15:16.211Z,1.4
2023-04-15T14:16:18.544Z,1.4
2023-04-15T14:17:20.825Z,1.3
2023-04-15T14:18:23.149Z,1.5
2023-04-15T14:19:25.454Z,1.3
2023-04-15T14:20:28.745Z,1.4
2023-04-15T14:21:32.028Z,1.3
2023-04-15T14:22:35.319Z,1.3
2023-04-15T14:23:38.633Z,1.4
2023-04-15T14:24:41.925Z,1.4
2023-04-15T14:25:45.211Z,1.3
2023-04-15T14:26:48.512Z,1.3
2023-04-15T14:27:51.786Z,1.3
2023-04-15T14:28:55.075Z,1.4
2023-04-15T14:29:58.376Z,1.1
2023-04-15T14:31:01.661Z,1.4
2023-04-15T14:32:04.969Z,1.4
2023-04-15T14:33:07.287Z,1.3
2023-04-15T14:34:10.565Z,1
2023-04-15T14:35:13.854Z,1.4
2023-04-15T14:36:17.148Z,1.1
2023-04-15T14:37:20.433Z,1.2
2023-04-15T14:38:23.721Z,1.2